Capitol Logistics 786


YSSY
Kingsford Smith International Airport
Sydney, AU
VHHH
Chek Lap Kok International
Hong Kong, HK

Activity Log

Date Flight Route Aircraft Duration
10/03/2019 CPX786 RIC H202 AGETA R340 AMN A461 ZAM A583 SABNO V541 DOVAR V541 BETTY B744 9h 13m
04/13/2019 CPX786 RIC H202 AGETA R340 AMN A461 ZAM A583 SABNO V541 DOVAR V541 BETTY B744 8h 28m

Route Details

Aircraft Information
Primary: Boeing 747-400BCF
Backup: Boeing 777-200LRF
Route Data
Distance: 3997nm
Sched. Duration: 9h 00m
Avg. Duration: 8h 71m (-29m)
Times Flown: 2
Recm'd Route: RIC H202 AGETA R340 AMN A461 ZAM A583 SABNO V541 DOVAR V541 BETTY
Planned Altitude: 36,000ft
Origin Wx: YSSY 311300Z 35007KT CAVOK 15/11 Q1014
Dest. Wx: VHHH 311300Z 21005KT 170V240 9999 FEW015 SCT040 30/25 Q1010 NOSIG
Notes:

Financial History
Total Freight: 354,248lbs
Average Load: 177,124lbs/flt
Fuel Used: 287,534lbs
Avg. Fuel Used: 143,767lbs/flt
Fuel Expense: $230,027
Avg. Fuel Expense: $115,014
Avg. Fuel Cost: $0.80/lbs
Total Gross Income: $1,250,495
Pilot Pay: $298
Total Expenses: $135,158
Total Revenue: $881,660
Average Revenue: $625,247.72